Time;durP1;ratioP1;P1;durP2;ratioP2;P2;SDS_P1;SDS_P2;PMS_P1;PMS_P2;Temp;Humidity;BMP_temperature;BMP_pressure;BME280_temperature;BME280_humidity;BME280_pressure;Samples;Min_cycle;Max_cycle;Signal;HPM_P1;HPM_P2
2023/08/21 00:01:44;;;;;;;9.63;5.72;;;16.30;91.30;;;;;;5068094;28;20040;-46
2023/08/21 00:04:11;;;;;;;9.38;6.43;;;16.30;91.40;;;;;;5070959;28;20036;-46
2023/08/21 00:06:37;;;;;;;9.05;5.90;;;16.30;91.30;;;;;;5053284;28;20028;-46
2023/08/21 00:09:04;;;;;;;10.95;6.18;;;16.20;91.20;;;;;;5070590;28;20036;-46
2023/08/21 00:11:31;;;;;;;7.82;5.63;;;16.20;91.20;;;;;;5064273;28;20017;-46
2023/08/21 00:13:58;;;;;;;8.80;5.35;;;16.20;91.30;;;;;;5052853;28;20075;-46
2023/08/21 00:16:28;;;;;;;7.47;5.05;;;16.20;91.30;;;;;;5053170;28;20512;-48
2023/08/21 00:18:57;;;;;;;7.78;4.82;;;16.20;91.30;;;;;;5057664;28;20028;-46
2023/08/21 00:21:24;;;;;;;10.68;5.57;;;16.20;91.30;;;;;;5051923;28;20086;-48
2023/08/21 00:23:50;;;;;;;12.70;5.43;;;16.10;91.00;;;;;;5063329;28;20024;-46
2023/08/21 00:26:17;;;;;;;8.43;5.40;;;16.10;91.10;;;;;;5067211;28;20623;-46
2023/08/21 00:28:48;;;;;;;8.77;4.80;;;16.10;91.20;;;;;;5071424;28;20046;-45
2023/08/21 00:31:14;;;;;;;11.75;5.25;;;16.10;91.30;;;;;;5065345;28;20694;-46
2023/08/21 00:33:41;;;;;;;10.40;5.70;;;16.10;91.30;;;;;;5069902;28;20501;-45
2023/08/21 00:36:08;;;;;;;8.48;4.88;;;16.10;91.40;;;;;;5070807;28;20518;-45
2023/08/21 00:38:35;;;;;;;9.95;4.85;;;16.10;91.50;;;;;;5049698;28;20040;-46
2023/08/21 00:41:04;;;;;;;10.52;5.50;;;16.20;91.70;;;;;;5055510;28;20060;-46
2023/08/21 00:43:31;;;;;;;8.75;4.78;;;16.20;91.80;;;;;;5069160;28;20099;-46
2023/08/21 00:46:00;;;;;;;8.55;5.10;;;16.30;91.80;;;;;;5049338;28;20082;-46
2023/08/21 00:48:27;;;;;;;6.93;4.90;;;16.30;91.80;;;;;;5055798;28;20453;-46
2023/08/21 00:50:55;;;;;;;10.93;5.13;;;16.30;91.80;;;;;;5049325;28;20029;-45
2023/08/21 00:53:24;;;;;;;15.75;5.38;;;16.30;91.90;;;;;;5055629;28;20041;-46
2023/08/21 00:55:51;;;;;;;11.55;4.88;;;16.30;91.90;;;;;;5060187;28;20025;-45
2023/08/21 00:58:21;;;;;;;11.70;5.13;;;16.30;92.00;;;;;;5060160;28;20024;-45
2023/08/21 01:00:51;;;;;;;;;;;16.40;91.90;;;;;;5071661;28;20031;-46
2023/08/21 01:03:18;;;;;;;6.25;4.25;;;16.30;91.70;;;;;;5070632;28;19959;-45
2023/08/21 01:05:46;;;;;;;12.82;5.93;;;16.30;91.70;;;;;;5057528;28;20493;-45
2023/08/21 01:08:35;;;;;;;7.43;4.88;;;16.30;91.70;;;;;;5074309;28;20039;-46
2023/08/21 01:11:12;;;;;;;7.40;4.55;;;16.20;91.50;;;;;;5074205;28;20062;-45
2023/08/21 01:14:19;;;;;;;6.45;4.00;;;16.20;91.40;;;;;;5072884;28;20046;-46
2023/08/21 01:16:48;;;;;;;8.05;4.45;;;16.20;91.30;;;;;;5068735;28;20441;-46
2023/08/21 01:19:26;;;;;;;10.25;5.10;;;16.20;91.30;;;;;;5072876;28;20370;-45
2023/08/21 01:21:52;;;;;;;10.38;3.83;;;16.10;91.20;;;;;;5056543;28;20063;-45
2023/08/21 01:24:20;;;;;;;8.52;4.10;;;16.00;91.30;;;;;;5057385;28;20036;-45
2023/08/21 01:26:48;;;;;;;6.72;3.72;;;16.00;91.20;;;;;;5073702;28;20040;-46
2023/08/21 01:29:15;;;;;;;7.63;3.95;;;16.00;91.20;;;;;;5054453;28;20128;-45
2023/08/21 01:31:55;;;;;;;6.65;4.43;;;15.90;91.20;;;;;;5072493;28;20044;-45
2023/08/21 01:34:22;;;;;;;;;;;15.90;91.10;;;;;;5049429;28;20079;-45
2023/08/21 01:36:48;;;;;;;9.23;4.55;;;15.90;91.20;;;;;;5054664;28;19913;-46
2023/08/21 01:39:16;;;;;;;8.30;4.22;;;15.90;91.00;;;;;;5070916;28;20049;-44
2023/08/21 01:41:42;;;;;;;7.47;4.28;;;15.80;91.20;;;;;;5058300;28;20398;-45
2023/08/21 01:44:08;;;;;;;7.13;4.32;;;15.80;91.00;;;;;;5059357;28;20021;-45
2023/08/21 01:46:37;;;;;;;11.25;4.68;;;15.80;91.00;;;;;;5073310;28;20063;-45
2023/08/21 01:49:04;;;;;;;11.45;5.57;;;15.80;91.10;;;;;;5073576;28;20048;-46
2023/08/21 01:51:31;;;;;;;8.32;4.95;;;15.80;91.30;;;;;;5072642;28;20036;-46
2023/08/21 01:53:57;;;;;;;13.15;5.28;;;15.80;91.40;;;;;;5072453;28;20395;-45
2023/08/21 01:56:24;;;;;;;11.45;5.25;;;15.80;91.50;;;;;;5068929;28;20099;-45
2023/08/21 01:58:51;;;;;;;7.65;4.78;;;15.90;91.70;;;;;;5039461;28;20496;-45
2023/08/21 02:01:18;;;;;;;8.93;5.20;;;15.90;91.80;;;;;;5071750;28;20401;-45
2023/08/21 02:03:47;;;;;;;9.18;6.80;;;15.90;91.90;;;;;;5055670;28;20044;-46
2023/08/21 02:06:13;;;;;;;12.75;6.05;;;15.90;91.90;;;;;;5052315;28;20055;-45
2023/08/21 02:08:40;;;;;;;12.43;5.90;;;15.90;91.90;;;;;;5061479;28;20475;-45
2023/08/21 02:11:07;;;;;;;7.30;5.43;;;15.90;92.10;;;;;;5071066;28;20430;-44
2023/08/21 02:13:32;;;;;;;13.25;5.82;;;15.90;91.90;;;;;;5056182;28;20434;-47
2023/08/21 02:16:01;;;;;;;8.35;5.53;;;15.90;92.00;;;;;;5068336;28;20035;-44
2023/08/21 02:18:27;;;;;;;9.70;5.65;;;15.90;91.90;;;;;;5053902;28;20457;-44
2023/08/21 02:20:54;;;;;;;9.45;4.50;;;15.90;92.00;;;;;;5066306;28;20140;-46
2023/08/21 02:23:19;;;;;;;10.88;6.18;;;15.90;91.90;;;;;;5074029;28;20032;-45
2023/08/21 02:25:49;;;;;;;11.55;5.78;;;15.80;91.90;;;;;;5065319;28;20044;-45
2023/08/21 02:28:20;;;;;;;12.07;6.00;;;15.80;91.90;;;;;;5073760;28;20039;-44
2023/08/21 02:30:47;;;;;;;11.30;6.82;;;15.80;92.00;;;;;;5069945;28;20029;-45
2023/08/21 02:33:14;;;;;;;14.25;6.10;;;15.70;92.00;;;;;;5073566;28;20024;-45
2023/08/21 02:35:41;;;;;;;10.68;5.53;;;15.70;92.10;;;;;;5072390;28;20491;-44
2023/08/21 02:38:09;;;;;;;12.35;6.35;;;15.70;92.10;;;;;;5069779;28;20047;-45
2023/08/21 02:40:38;;;;;;;11.02;6.20;;;15.70;92.10;;;;;;5072426;28;20043;-44
2023/08/21 02:43:04;;;;;;;11.35;6.80;;;15.70;92.10;;;;;;5071639;28;20428;-44
2023/08/21 02:45:32;;;;;;;12.73;6.20;;;15.60;92.10;;;;;;5071012;28;20099;-44
2023/08/21 02:47:59;;;;;;;9.85;6.15;;;15.60;92.10;;;;;;5071599;28;20025;-44
2023/08/21 02:50:25;;;;;;;11.38;6.50;;;15.60;92.10;;;;;;5072002;28;20553;-45
2023/08/21 02:52:54;;;;;;;10.70;5.82;;;15.60;92.10;;;;;;5072252;28;20040;-43
2023/08/21 02:55:21;;;;;;;9.73;5.97;;;15.60;92.30;;;;;;5051851;28;20048;-45
2023/08/21 02:57:49;;;;;;;12.75;5.95;;;15.60;92.20;;;;;;5065239;28;20090;-44
2023/08/21 03:00:17;;;;;;;9.40;6.72;;;15.60;92.20;;;;;;5070474;28;20017;-44
2023/08/21 03:02:44;;;;;;;15.65;6.97;;;15.60;92.30;;;;;;5070098;28;20029;-44
2023/08/21 03:05:14;;;;;;;10.68;6.55;;;15.60;92.40;;;;;;5071602;28;20021;-44
2023/08/21 03:07:42;;;;;;;11.43;7.47;;;15.60;92.40;;;;;;5071538;28;20021;-45
2023/08/21 03:10:09;;;;;;;11.73;7.68;;;15.60;92.40;;;;;;5071047;28;20094;-44
2023/08/21 03:12:37;;;;;;;14.55;7.55;;;15.60;92.40;;;;;;5071900;28;20267;-45
2023/08/21 03:15:03;;;;;;;8.32;6.13;;;15.60;92.40;;;;;;5052602;28;20086;-45
2023/08/21 03:17:28;;;;;;;9.27;6.47;;;15.60;92.50;;;;;;5049942;28;20036;-44
2023/08/21 03:19:55;;;;;;;11.25;6.43;;;15.60;92.50;;;;;;5061979;28;20037;-44
2023/08/21 03:22:26;;;;;;;8.85;6.15;;;15.60;92.40;;;;;;5072398;28;20093;-44
2023/08/21 03:24:57;;;;;;;7.47;6.32;;;15.60;92.40;;;;;;5055476;28;20120;-44
2023/08/21 03:27:25;;;;;;;8.38;6.25;;;15.60;92.30;;;;;;5070043;28;20041;-45
2023/08/21 03:29:56;;;;;;;12.25;7.28;;;15.50;92.20;;;;;;5072511;28;20115;-43
2023/08/21 03:32:24;;;;;;;9.50;7.00;;;15.50;92.10;;;;;;5069925;28;20024;-43
2023/08/21 03:34:51;;;;;;;6.85;5.80;;;15.40;92.10;;;;;;5057236;28;20032;-44
2023/08/21 03:37:18;;;;;;;8.35;5.93;;;15.40;92.10;;;;;;5054668;28;20435;-43
2023/08/21 03:39:46;;;;;;;7.57;6.28;;;15.40;92.10;;;;;;5072137;28;20059;-45
2023/08/21 03:42:13;;;;;;;11.80;7.78;;;15.40;92.00;;;;;;5066486;28;20646;-44
2023/08/21 03:44:42;;;;;;;10.23;6.90;;;15.30;92.10;;;;;;5053474;28;20099;-44
2023/08/21 03:47:09;;;;;;;8.88;6.40;;;15.30;92.20;;;;;;5041903;28;20037;-44
2023/08/21 03:49:36;;;;;;;11.63;6.85;;;15.30;92.30;;;;;;5071801;28;20040;-45
2023/08/21 03:52:02;;;;;;;8.45;7.20;;;15.40;92.30;;;;;;5052055;28;20111;-44
2023/08/21 03:54:29;;;;;;;9.98;7.28;;;15.40;92.40;;;;;;5052236;28;20509;-43
2023/08/21 03:56:59;;;;;;;10.75;7.22;;;15.30;92.50;;;;;;5060260;28;20016;-44
2023/08/21 03:59:27;;;;;;;9.10;6.68;;;15.30;92.50;;;;;;5070695;28;20357;-44
2023/08/21 04:01:55;;;;;;;10.50;6.97;;;15.30;92.50;;;;;;5062245;28;20035;-44
2023/08/21 04:04:20;;;;;;;10.18;7.05;;;15.30;92.40;;;;;;5071231;28;20024;-43
2023/08/21 04:06:49;;;;;;;12.63;7.47;;;15.30;92.50;;;;;;5068800;28;20035;-44
2023/08/21 04:09:17;;;;;;;14.40;7.22;;;15.30;92.30;;;;;;5071410;28;20025;-44
2023/08/21 04:11:46;;;;;;;9.13;7.05;;;15.30;92.20;;;;;;5049156;28;20082;-43
2023/08/21 04:14:14;;;;;;;8.73;6.70;;;15.20;92.20;;;;;;5051827;28;20087;-43
2023/08/21 04:16:44;;;;;;;9.05;6.40;;;15.20;92.20;;;;;;5060013;28;20434;-42
2023/08/21 04:19:11;;;;;;;8.50;7.38;;;15.20;92.10;;;;;;5048860;28;20028;-43
2023/08/21 04:21:37;;;;;;;9.07;6.47;;;15.20;92.20;;;;;;5074460;28;20027;-44
2023/08/21 04:24:04;;;;;;;9.13;6.25;;;15.20;92.10;;;;;;5057211;28;20032;-44
2023/08/21 04:26:34;;;;;;;7.38;6.13;;;15.10;92.20;;;;;;5074291;28;20028;-44
2023/08/21 04:29:01;;;;;;;8.88;5.70;;;15.10;92.10;;;;;;5074943;28;20032;-44
2023/08/21 04:31:26;;;;;;;10.35;6.80;;;15.00;92.10;;;;;;5048694;28;20032;-44
2023/08/21 04:33:54;;;;;;;8.20;6.30;;;15.10;92.20;;;;;;5057458;28;20033;-44
2023/08/21 04:36:22;;;;;;;9.70;6.95;;;15.00;92.20;;;;;;5073764;28;20039;-43
2023/08/21 04:38:50;;;;;;;8.88;6.57;;;15.10;92.40;;;;;;5075909;28;20095;-44
2023/08/21 04:41:15;;;;;;;6.30;5.60;;;15.00;92.20;;;;;;5065062;28;20029;-43
2023/08/21 04:43:46;;;;;;;8.18;6.07;;;15.10;92.40;;;;;;5063900;28;20354;-44
2023/08/21 04:46:16;;;;;;;6.75;5.70;;;15.10;92.50;;;;;;5066162;28;20333;-43
2023/08/21 04:48:45;;;;;;;6.57;5.35;;;15.10;92.40;;;;;;5064138;28;20116;-44
2023/08/21 04:51:11;;;;;;;12.98;6.68;;;15.00;92.40;;;;;;5064391;28;20116;-43
2023/08/21 04:53:38;;;;;;;6.68;5.57;;;15.10;92.50;;;;;;5065113;28;20540;-43
2023/08/21 04:56:06;;;;;;;9.27;5.43;;;15.10;92.50;;;;;;5050511;28;20062;-43
2023/08/21 04:58:33;;;;;;;7.88;6.28;;;15.10;92.40;;;;;;5064098;28;20032;-44
2023/08/21 05:01:01;;;;;;;6.82;5.70;;;15.20;92.50;;;;;;5068239;28;20121;-43
2023/08/21 05:03:27;;;;;;;6.93;5.75;;;15.20;92.50;;;;;;5050852;28;20024;-43
2023/08/21 05:05:55;;;;;;;6.78;5.88;;;15.20;92.40;;;;;;5066910;28;20024;-44
2023/08/21 05:08:25;;;;;;;5.95;5.45;;;15.20;92.50;;;;;;5065527;28;20029;-45
2023/08/21 05:11:00;;;;;;;6.75;5.70;;;15.30;92.50;;;;;;5042802;28;20516;-44
2023/08/21 05:13:27;;;;;;;7.63;5.03;;;15.30;92.40;;;;;;5062880;28;20095;-43
2023/08/21 05:15:56;;;;;;;10.93;6.22;;;15.30;92.30;;;;;;5062288;28;20342;-43
2023/08/21 05:18:23;;;;;;;9.35;5.57;;;15.30;92.20;;;;;;5067202;28;20657;-43
2023/08/21 05:20:53;;;;;;;9.18;5.05;;;15.30;92.40;;;;;;5060120;28;20048;-44
2023/08/21 05:23:21;;;;;;;4.85;4.18;;;15.30;92.50;;;;;;5048440;28;20042;-44
2023/08/21 05:25:48;;;;;;;5.25;4.75;;;15.40;92.50;;;;;;5072662;28;20043;-43
2023/08/21 05:28:15;;;;;;;5.07;4.47;;;15.40;92.50;;;;;;5065666;28;20032;-44
2023/08/21 05:30:42;;;;;;;5.72;5.00;;;15.40;92.40;;;;;;5065136;28;20046;-44
2023/08/21 05:33:10;;;;;;;5.38;4.80;;;15.40;92.30;;;;;;5059482;28;20029;-43
2023/08/21 05:35:38;;;;;;;6.70;5.38;;;15.40;92.40;;;;;;5060930;28;20021;-44
2023/08/21 05:38:06;;;;;;;4.65;4.15;;;15.50;92.40;;;;;;5060221;28;20027;-43
2023/08/21 05:40:34;;;;;;;5.25;4.75;;;15.50;92.20;;;;;;5058625;28;20065;-44
2023/08/21 05:43:02;;;;;;;5.18;4.00;;;15.50;92.20;;;;;;5067724;28;20125;-43
2023/08/21 05:45:34;;;;;;;4.90;4.40;;;15.40;92.30;;;;;;5067246;28;20394;-43
2023/08/21 05:48:08;;;;;;;4.97;4.53;;;15.50;92.40;;;;;;5073636;28;20036;-44
2023/08/21 05:50:37;;;;;;;5.70;5.10;;;15.60;92.50;;;;;;5068352;28;20060;-43
2023/08/21 05:53:08;;;;;;;7.60;5.20;;;15.60;92.50;;;;;;5068077;28;20036;-44
2023/08/21 05:55:38;;;;;;;4.63;4.15;;;15.60;92.60;;;;;;5073289;28;20036;-44
2023/08/21 05:58:06;;;;;;;4.32;3.92;;;15.70;92.70;;;;;;5066218;28;20024;-44
2023/08/21 06:00:34;;;;;;;8.00;4.47;;;15.70;92.70;;;;;;5052286;28;20105;-43
2023/08/21 06:03:04;;;;;;;6.18;5.57;;;15.80;92.80;;;;;;5064129;28;20031;-45
2023/08/21 06:05:33;;;;;;;7.50;5.68;;;15.90;92.90;;;;;;5063906;28;20028;-44
2023/08/21 06:08:00;;;;;;;5.28;4.63;;;15.90;93.00;;;;;;5065257;28;20381;-44
2023/08/21 06:10:28;;;;;;;5.88;4.35;;;16.00;93.10;;;;;;5049225;28;20037;-44
2023/08/21 06:12:55;;;;;;;4.68;4.10;;;16.10;93.10;;;;;;5066615;28;20506;-44
2023/08/21 06:15:23;;;;;;;5.32;3.60;;;16.10;93.10;;;;;;5060880;28;20129;-44
2023/08/21 06:17:49;;;;;;;4.13;3.33;;;16.20;93.10;;;;;;5045751;28;20028;-43
2023/08/21 06:20:15;;;;;;;5.80;4.30;;;16.30;93.60;;;;;;5063491;28;20449;-43
2023/08/21 06:22:42;;;;;;;5.55;4.10;;;16.40;93.30;;;;;;5059188;28;20036;-43
2023/08/21 06:25:09;;;;;;;9.98;5.75;;;16.40;93.30;;;;;;5043776;28;20106;-43
2023/08/21 06:27:38;;;;;;;8.45;5.20;;;16.50;93.40;;;;;;5042906;28;20041;-43
2023/08/21 06:30:16;;;;;;;9.02;5.25;;;16.60;93.30;;;;;;5064096;28;20044;-42
2023/08/21 06:32:49;;;;;;;6.20;4.40;;;16.70;93.60;;;;;;5063837;28;20048;-44
2023/08/21 06:35:19;;;;;;;8.18;5.28;;;16.80;93.60;;;;;;5066732;28;20616;-43
2023/08/21 06:37:45;;;;;;;8.27;6.10;;;16.90;93.70;;;;;;5071459;28;20032;-43
2023/08/21 06:40:11;;;;;;;14.43;6.55;;;16.90;93.70;;;;;;5064003;28;20052;-42
2023/08/21 06:42:40;;;;;;;10.68;6.20;;;17.00;93.80;;;;;;5050218;28;20017;-42
2023/08/21 06:45:07;;;;;;;13.23;5.60;;;17.10;93.80;;;;;;5064820;28;20032;-43
2023/08/21 06:47:36;;;;;;;12.82;5.90;;;17.20;94.00;;;;;;5071482;28;20115;-45
2023/08/21 06:50:03;;;;;;;14.93;7.65;;;17.20;94.10;;;;;;5063059;28;20033;-43
2023/08/21 06:52:33;;;;;;;12.18;6.00;;;17.30;94.20;;;;;;5064487;28;20040;-45
2023/08/21 06:55:02;;;;;;;10.60;5.20;;;17.40;94.20;;;;;;5034500;28;20037;-47
2023/08/21 06:57:27;;;;;;;10.02;6.00;;;17.40;94.20;;;;;;5060689;28;20457;-49
2023/08/21 06:59:54;;;;;;;15.32;5.78;;;17.40;94.30;;;;;;5047615;28;20085;-45
2023/08/21 07:02:20;;;;;;;14.93;6.75;;;17.40;94.40;;;;;;5062938;28;20025;-44
2023/08/21 07:04:49;;;;;;;10.10;4.93;;;17.50;94.50;;;;;;5067940;28;20025;-43
2023/08/21 07:07:18;;;;;;;14.88;6.95;;;17.60;94.50;;;;;;5045681;28;20029;-44
2023/08/21 07:09:43;;;;;;;15.55;6.43;;;17.70;94.40;;;;;;5066889;28;20028;-44
2023/08/21 07:12:14;;;;;;;15.40;6.10;;;17.80;94.40;;;;;;5071583;28;20353;-42
2023/08/21 07:14:42;;;;;;;14.55;5.63;;;17.90;94.40;;;;;;5065241;28;20029;-43
2023/08/21 07:17:09;;;;;;;9.80;5.28;;;17.90;94.30;;;;;;5043661;28;20117;-43
2023/08/21 07:19:35;;;;;;;12.25;4.35;;;17.90;94.10;;;;;;5059618;28;20162;-44
2023/08/21 07:22:06;;;;;;;9.40;4.93;;;18.00;94.10;;;;;;5049772;28;20421;-43
2023/08/21 07:24:33;;;;;;;23.95;6.13;;;18.10;93.90;;;;;;5062276;28;20075;-44
2023/08/21 07:27:01;;;;;;;11.25;4.47;;;18.10;93.60;;;;;;5067327;28;20044;-44
2023/08/21 07:29:27;;;;;;;16.23;6.18;;;18.10;93.30;;;;;;5058831;28;20112;-44
2023/08/21 07:31:54;;;;;;;7.35;3.85;;;18.20;93.20;;;;;;5050601;28;20402;-46
2023/08/21 07:34:21;;;;;;;7.93;4.03;;;18.40;93.40;;;;;;5068711;28;20024;-43
2023/08/21 07:36:47;;;;;;;7.57;3.45;;;18.40;92.70;;;;;;5041744;28;20041;-43
2023/08/21 07:39:17;;;;;;;9.82;3.05;;;18.50;92.50;;;;;;5058455;28;20052;-44
2023/08/21 07:41:45;;;;;;;11.90;4.90;;;18.50;92.10;;;;;;5064683;28;20033;-43
2023/08/21 07:44:10;;;;;;;9.50;3.13;;;18.60;91.10;;;;;;5064674;28;20029;-44
2023/08/21 07:46:38;;;;;;;8.50;3.08;;;18.90;91.80;;;;;;5060885;28;20082;-45
2023/08/21 07:49:06;;;;;;;12.20;3.38;;;18.90;90.20;;;;;;5059552;28;20024;-44
2023/08/21 07:51:34;;;;;;;11.07;3.42;;;19.20;90.10;;;;;;5065447;28;20036;-44
2023/08/21 07:54:01;;;;;;;8.82;2.40;;;19.50;89.20;;;;;;5041928;28;20470;-48
2023/08/21 07:56:29;;;;;;;8.93;3.38;;;19.90;88.60;;;;;;5045503;28;20043;-46
2023/08/21 07:58:56;;;;;;;6.20;1.88;;;20.20;86.40;;;;;;5061719;28;20021;-47
2023/08/21 08:01:23;;;;;;;9.48;2.45;;;20.60;85.90;;;;;;5060247;28;20086;-46
2023/08/21 08:03:49;;;;;;;3.67;1.30;;;21.00;83.20;;;;;;5063747;28;20029;-47
2023/08/21 08:06:16;;;;;;;5.35;1.77;;;21.10;81.90;;;;;;5060904;28;20037;-50
2023/08/21 08:08:42;;;;;;;4.30;1.63;;;21.40;78.80;;;;;;5059186;28;20068;-47
2023/08/21 08:11:10;;;;;;;6.05;2.22;;;21.60;79.40;;;;;;5065308;28;20048;-48
2023/08/21 08:13:37;;;;;;;6.15;1.63;;;21.90;77.60;;;;;;5070712;28;20404;-51
2023/08/21 08:16:05;;;;;;;6.22;1.48;;;22.30;77.80;;;;;;5052745;28;20119;-48
2023/08/21 08:18:32;;;;;;;5.50;1.30;;;22.60;75.80;;;;;;5070741;28;20021;-51
2023/08/21 08:21:00;;;;;;;6.53;1.70;;;22.90;74.50;;;;;;5063705;28;20409;-48
2023/08/21 08:23:28;;;;;;;4.82;1.70;;;23.10;74.70;;;;;;5061953;28;20033;-50
2023/08/21 08:25:55;;;;;;;5.75;1.58;;;23.30;74.00;;;;;;5062743;28;20052;-52
2023/08/21 08:28:23;;;;;;;4.57;1.60;;;23.50;73.90;;;;;;5063052;28;20107;-49
2023/08/21 08:30:52;;;;;;;4.68;1.40;;;23.90;71.40;;;;;;5053266;28;20027;-51
2023/08/21 08:33:17;;;;;;;4.65;1.40;;;23.90;68.00;;;;;;5047318;28;20661;-50
2023/08/21 08:35:45;;;;;;;5.93;1.40;;;24.10;68.50;;;;;;5068787;28;20119;-54
2023/08/21 08:38:14;;;;;;;4.25;1.33;;;24.30;67.40;;;;;;5048660;28;20187;-55
2023/08/21 08:40:48;;;;;;;6.75;1.60;;;24.40;69.30;;;;;;5059544;28;20072;-50
2023/08/21 08:43:14;;;;;;;4.43;1.30;;;24.60;68.20;;;;;;5047051;28;20117;-54
2023/08/21 08:45:41;;;;;;;4.13;1.10;;;24.80;68.30;;;;;;5043860;28;20785;-55
2023/08/21 08:48:10;;;;;;;2.30;0.88;;;24.90;66.00;;;;;;5037558;28;20044;-54
2023/08/21 08:50:39;;;;;;;3.25;1.50;;;25.00;67.00;;;;;;5065420;28;20032;-50
2023/08/21 08:53:08;;;;;;;5.82;1.20;;;25.10;65.40;;;;;;5058040;28;20155;-55
2023/08/21 08:55:36;;;;;;;4.78;1.60;;;25.00;63.80;;;;;;5062419;28;20409;-57
2023/08/21 08:58:04;;;;;;;3.47;1.08;;;24.90;62.10;;;;;;5063287;28;20150;-54
2023/08/21 09:00:31;;;;;;;4.68;1.30;;;25.00;62.80;;;;;;5060443;28;20032;-55
2023/08/21 09:02:58;;;;;;;4.65;1.50;;;25.10;65.10;;;;;;5060381;28;20422;-53
2023/08/21 09:05:27;;;;;;;3.83;1.85;;;25.30;65.20;;;;;;5058639;28;20107;-55
2023/08/21 09:08:14;;;;;;;4.70;1.38;;;25.70;66.90;;;;;;5062918;28;20040;-53
2023/08/21 09:10:46;;;;;;;4.72;1.30;;;25.80;64.40;;;;;;5061052;28;20032;-56
2023/08/21 09:13:22;;;;;;;4.28;1.30;;;25.60;63.30;;;;;;5063021;28;20029;-53
2023/08/21 09:15:54;;;;;;;4.85;1.40;;;25.80;60.40;;;;;;5060107;28;20033;-52
2023/08/21 09:18:22;;;;;;;5.63;1.42;;;25.90;61.50;;;;;;5058838;28;20036;-52
2023/08/21 09:20:52;;;;;;;2.85;0.70;;;25.90;64.20;;;;;;5047340;28;20446;-55
2023/08/21 09:23:19;;;;;;;2.00;0.90;;;25.80;61.80;;;;;;5062109;28;20100;-51
2023/08/21 09:25:50;;;;;;;4.55;1.30;;;25.80;61.90;;;;;;5061910;28;20020;-55
2023/08/21 09:28:20;;;;;;;4.43;1.27;;;25.70;59.80;;;;;;5063638;28;20123;-53
2023/08/21 09:30:58;;;;;;;5.28;1.25;;;25.60;60.00;;;;;;5062813;28;20040;-53
2023/08/21 09:33:27;;;;;;;5.13;1.83;;;25.60;62.70;;;;;;5061573;28;20036;-55
2023/08/21 09:35:56;;;;;;;5.65;1.10;;;25.70;64.00;;;;;;5066877;28;20353;-54
2023/08/21 09:38:25;;;;;;;4.15;1.10;;;25.90;60.20;;;;;;5046787;28;20688;-56
2023/08/21 09:40:56;;;;;;;4.50;1.27;;;25.90;60.60;;;;;;5061501;28;20050;-57
2023/08/21 09:43:28;;;;;;;2.83;1.27;;;25.90;58.90;;;;;;5064612;28;20028;-55
2023/08/21 09:45:58;;;;;;;4.63;1.40;;;25.90;61.30;;;;;;5034657;28;20036;-55
2023/08/21 09:48:30;;;;;;;4.78;1.70;;;25.90;60.90;;;;;;5061524;28;20059;-55
2023/08/21 09:51:04;;;;;;;5.93;1.92;;;25.90;61.10;;;;;;5045553;28;20454;-52
2023/08/21 09:53:31;;;;;;;4.05;1.42;;;25.90;61.10;;;;;;5062377;28;20037;-54
2023/08/21 09:56:03;;;;;;;3.70;1.50;;;26.00;60.60;;;;;;5048623;28;20037;-55
2023/08/21 09:58:30;;;;;;;3.90;1.00;;;25.90;59.00;;;;;;5038836;28;20021;-52
2023/08/21 10:01:05;;;;;;;5.35;1.65;;;26.20;63.00;;;;;;5060474;28;20481;-51
2023/08/21 10:03:35;;;;;;;3.03;1.23;;;26.10;58.10;;;;;;5062292;28;20111;-49
2023/08/21 10:06:02;;;;;;;4.55;1.50;;;26.20;60.80;;;;;;5071162;28;20037;-53
2023/08/21 10:08:36;;;;;;;3.60;1.20;;;26.40;61.00;;;;;;5064507;28;20036;-50
2023/08/21 10:11:05;;;;;;;4.65;1.65;;;26.40;59.80;;;;;;5062162;28;20032;-53
2023/08/21 10:13:33;;;;;;;4.73;1.60;;;26.40;58.60;;;;;;5042733;28;20021;-54
2023/08/21 10:16:00;;;;;;;5.72;1.90;;;26.10;57.00;;;;;;5051937;28;20037;-54
2023/08/21 10:18:38;;;;;;;5.95;1.65;;;26.40;59.30;;;;;;5044969;28;20062;-52
2023/08/21 10:21:25;;;;;;;5.63;1.35;;;26.10;58.50;;;;;;5050023;28;20031;-56
2023/08/21 10:23:57;;;;;;;6.60;1.42;;;26.20;60.70;;;;;;5055341;28;20045;-54
2023/08/21 10:26:27;;;;;;;5.28;1.92;;;26.00;59.90;;;;;;5038744;28;20028;-49
2023/08/21 10:29:06;;;;;;;4.43;1.20;;;25.80;56.90;;;;;;5065010;28;20032;-50
2023/08/21 10:32:03;;;;;;;5.30;1.40;;;26.00;60.50;;;;;;5062065;28;20028;-53
2023/08/21 10:34:53;;;;;;;5.97;1.42;;;26.30;60.30;;;;;;5065011;28;20495;-52
2023/08/21 10:37:19;;;;;;;4.28;1.40;;;26.00;56.50;;;;;;5034590;28;20354;-52
2023/08/21 10:39:59;;;;;;;3.55;1.33;;;25.90;58.00;;;;;;5058553;28;20051;-55
2023/08/21 10:42:42;;;;;;;5.95;1.52;;;26.20;60.90;;;;;;5062565;28;20036;-53
2023/08/21 10:45:15;;;;;;;4.55;1.42;;;26.20;59.60;;;;;;5067207;28;20028;-55
2023/08/21 10:47:42;;;;;;;4.82;1.40;;;26.40;59.20;;;;;;5040419;28;20048;-48
2023/08/21 10:50:10;;;;;;;3.28;1.00;;;26.50;58.60;;;;;;5068418;28;20093;-51
2023/08/21 10:52:44;;;;;;;4.75;1.45;;;26.60;62.80;;;;;;5063963;28;20024;-55
2023/08/21 10:55:13;;;;;;;6.57;1.73;;;26.70;58.90;;;;;;5038943;28;20090;-54
2023/08/21 10:57:42;;;;;;;3.65;1.40;;;26.50;58.30;;;;;;5059064;28;20033;-53
2023/08/21 11:00:26;;;;;;;;;;;26.60;56.50;;;;;;5057460;28;20021;-53
2023/08/21 11:02:55;;;;;;;3.63;1.30;;;26.40;55.60;;;;;;5063978;28;19923;-55
2023/08/21 11:05:23;;;;;;;5.97;1.60;;;26.50;55.90;;;;;;5063389;28;20028;-53
2023/08/21 11:07:48;;;;;;;4.05;1.17;;;26.30;56.50;;;;;;5061653;28;20294;-54
2023/08/21 11:10:33;;;;;;;3.88;0.90;;;26.20;57.70;;;;;;5057969;28;20037;-53
2023/08/21 11:13:04;;;;;;;6.28;1.30;;;26.20;58.50;;;;;;5050709;28;20634;-50
2023/08/21 11:15:36;;;;;;;4.28;1.13;;;26.20;55.60;;;;;;5056966;28;20043;-54
2023/08/21 11:18:03;;;;;;;3.47;1.45;;;26.30;59.00;;;;;;5060232;28;20052;-51
2023/08/21 11:20:37;;;;;;;4.22;1.38;;;26.60;57.60;;;;;;5061665;28;20338;-55
2023/08/21 11:23:07;;;;;;;3.53;1.00;;;26.80;57.80;;;;;;5041842;28;20446;-52
2023/08/21 11:25:54;;;;;;;3.20;1.17;;;26.90;57.20;;;;;;5059246;28;20023;-55
2023/08/21 11:28:20;;;;;;;2.63;1.20;;;26.80;57.90;;;;;;5062756;28;20028;-54
2023/08/21 11:30:47;;;;;;;3.55;1.20;;;26.30;55.30;;;;;;5050072;28;20027;-55
2023/08/21 11:33:14;;;;;;;5.45;1.40;;;26.10;57.90;;;;;;5037834;28;20044;-54
2023/08/21 11:35:43;;;;;;;5.18;1.30;;;25.90;58.10;;;;;;5063372;28;20055;-51
2023/08/21 11:38:25;;;;;;;6.90;2.07;;;25.90;61.20;;;;;;5043864;28;20025;-54
2023/08/21 11:41:00;;;;;;;5.25;1.50;;;26.00;65.30;;;;;;5030091;28;20045;-56
2023/08/21 11:43:57;;;;;;;3.25;1.10;;;26.30;66.80;;;;;;5060818;28;20361;-53
2023/08/21 11:46:25;;;;;;;31.05;2.45;;;26.40;64.70;;;;;;5044399;28;20028;-53
2023/08/21 11:48:52;;;;;;;7.25;2.28;;;26.50;63.40;;;;;;5056873;28;20365;-54
2023/08/21 11:51:20;;;;;;;4.90;1.63;;;26.40;60.70;;;;;;5038453;28;20024;-53
2023/08/21 11:53:51;;;;;;;8.27;1.88;;;26.10;63.40;;;;;;5058567;28;20048;-52
2023/08/21 11:56:18;;;;;;;5.00;2.00;;;25.90;63.30;;;;;;5039671;28;20037;-56
2023/08/21 11:58:46;;;;;;;3.88;1.50;;;25.80;62.40;;;;;;5062485;28;20501;-57
2023/08/21 12:01:22;;;;;;;6.65;1.75;;;25.70;63.80;;;;;;5061700;28;20024;-54
2023/08/21 12:03:57;;;;;;;7.13;1.73;;;25.40;63.00;;;;;;5049058;28;20044;-53
2023/08/21 12:06:26;;;;;;;6.25;2.03;;;25.40;64.10;;;;;;5048384;28;20043;-56
2023/08/21 12:08:51;;;;;;;5.28;1.67;;;25.40;65.70;;;;;;5066601;28;20045;-56
2023/08/21 12:11:21;;;;;;;6.75;1.63;;;25.60;65.30;;;;;;5069222;28;20037;-56
2023/08/21 12:13:48;;;;;;;7.32;1.92;;;25.60;64.50;;;;;;5066086;28;20302;-54
2023/08/21 12:16:20;;;;;;;7.90;1.50;;;25.80;63.60;;;;;;5050138;28;20040;-53
2023/08/21 12:18:54;;;;;;;5.43;1.70;;;25.80;62.20;;;;;;5060296;28;20032;-52
2023/08/21 12:21:22;;;;;;;4.82;1.48;;;25.80;63.70;;;;;;5063711;28;20028;-52
2023/08/21 12:23:49;;;;;;;3.85;1.65;;;25.60;64.30;;;;;;5065717;28;20029;-54
2023/08/21 12:26:22;;;;;;;4.97;1.45;;;25.50;64.80;;;;;;5046569;28;20103;-54
2023/08/21 12:28:50;;;;;;;6.72;2.83;;;25.40;63.90;;;;;;5066675;28;20316;-54
2023/08/21 12:31:18;;;;;;;7.47;1.98;;;25.40;63.40;;;;;;5062608;28;20130;-52
2023/08/21 12:33:44;;;;;;;5.25;1.98;;;25.20;61.20;;;;;;5067314;28;20032;-54
2023/08/21 12:36:21;;;;;;;6.18;1.88;;;24.90;63.80;;;;;;5049798;28;20025;-57
2023/08/21 12:38:48;;;;;;;6.93;2.05;;;24.60;64.30;;;;;;5042542;28;20031;-55
2023/08/21 12:41:17;;;;;;;5.30;1.60;;;24.30;66.00;;;;;;5060171;28;20740;-56
2023/08/21 12:43:45;;;;;;;4.47;1.70;;;24.20;66.50;;;;;;5059158;28;20040;-53
2023/08/21 12:46:12;;;;;;;7.75;1.75;;;24.30;65.80;;;;;;5049801;28;20338;-53
2023/08/21 12:48:39;;;;;;;6.47;1.88;;;24.20;66.70;;;;;;5065408;28;20572;-53
2023/08/21 12:51:07;;;;;;;6.25;1.85;;;24.40;67.20;;;;;;5067164;28;20042;-55
2023/08/21 12:53:33;;;;;;;4.63;1.67;;;24.40;66.50;;;;;;5062471;28;20481;-51
2023/08/21 12:56:00;;;;;;;6.40;2.08;;;24.40;67.60;;;;;;5048722;28;20036;-52